sensor_id;sensor_type;location;lat;lon;timestamp;temperature;humidity
14397;DHT22;50653;47.810;13.022;2024-03-29T00:00:40;6.00;99.90
14397;DHT22;50653;47.810;13.022;2024-03-29T00:03:06;6.00;99.90
14397;DHT22;50653;47.810;13.022;2024-03-29T00:05:35;5.90;99.90
14397;DHT22;50653;47.810;13.022;2024-03-29T00:08:02;5.90;99.90
14397;DHT22;50653;47.810;13.022;2024-03-29T00:10:27;5.90;99.90
14397;DHT22;50653;47.810;13.022;2024-03-29T00:12:53;5.90;99.90
14397;DHT22;50653;47.810;13.022;2024-03-29T00:15:19;5.90;99.90
14397;DHT22;50653;47.810;13.022;2024-03-29T00:17:44;5.90;99.90
14397;DHT22;50653;47.810;13.022;2024-03-29T00:20:10;6.00;99.90
14397;DHT22;50653;47.810;13.022;2024-03-29T00:22:37;6.00;99.90
14397;DHT22;50653;47.810;13.022;2024-03-29T00:25:03;6.00;99.90
14397;DHT22;50653;47.810;13.022;2024-03-29T00:27:29;6.00;99.90
14397;DHT22;50653;47.810;13.022;2024-03-29T00:29:56;6.00;99.90
14397;DHT22;50653;47.810;13.022;2024-03-29T00:32:22;5.90;99.90
14397;DHT22;50653;47.810;13.022;2024-03-29T00:34:50;5.90;99.90
14397;DHT22;50653;47.810;13.022;2024-03-29T00:37:16;5.90;99.90
14397;DHT22;50653;47.810;13.022;2024-03-29T00:39:42;5.90;99.90
14397;DHT22;50653;47.810;13.022;2024-03-29T00:42:08;5.90;99.90
14397;DHT22;50653;47.810;13.022;2024-03-29T00:44:43;5.90;99.90
14397;DHT22;50653;47.810;13.022;2024-03-29T00:47:09;5.90;99.90
14397;DHT22;50653;47.810;13.022;2024-03-29T00:49:35;5.90;99.90
14397;DHT22;50653;47.810;13.022;2024-03-29T00:52:02;5.80;99.90
14397;DHT22;50653;47.810;13.022;2024-03-29T00:54:28;5.80;99.90
14397;DHT22;50653;47.810;13.022;2024-03-29T00:56:54;5.80;99.90
14397;DHT22;50653;47.810;13.022;2024-03-29T00:59:20;5.80;99.90
14397;DHT22;50653;47.810;13.022;2024-03-29T01:01:46;5.70;99.90
14397;DHT22;50653;47.810;13.022;2024-03-29T01:04:12;5.80;99.90
14397;DHT22;50653;47.810;13.022;2024-03-29T01:06:38;5.80;99.90
14397;DHT22;50653;47.810;13.022;2024-03-29T01:09:06;5.80;99.90
14397;DHT22;50653;47.810;13.022;2024-03-29T01:11:32;5.90;99.90
14397;DHT22;50653;47.810;13.022;2024-03-29T01:13:58;5.90;99.90
14397;DHT22;50653;47.810;13.022;2024-03-29T01:16:24;5.90;99.90
14397;DHT22;50653;47.810;13.022;2024-03-29T01:18:50;5.90;99.90
14397;DHT22;50653;47.810;13.022;2024-03-29T01:21:17;5.90;99.90
14397;DHT22;50653;47.810;13.022;2024-03-29T01:23:44;6.00;99.90
14397;DHT22;50653;47.810;13.022;2024-03-29T01:26:09;5.90;99.90
14397;DHT22;50653;47.810;13.022;2024-03-29T01:28:38;5.90;99.90
14397;DHT22;50653;47.810;13.022;2024-03-29T01:31:05;6.00;99.90
14397;DHT22;50653;47.810;13.022;2024-03-29T01:33:31;6.00;99.90
14397;DHT22;50653;47.810;13.022;2024-03-29T01:36:04;6.00;99.90
14397;DHT22;50653;47.810;13.022;2024-03-29T01:38:30;6.00;99.90
14397;DHT22;50653;47.810;13.022;2024-03-29T01:40:55;6.00;99.90
14397;DHT22;50653;47.810;13.022;2024-03-29T01:43:21;6.00;99.90
14397;DHT22;50653;47.810;13.022;2024-03-29T01:45:48;6.00;99.90
14397;DHT22;50653;47.810;13.022;2024-03-29T01:48:18;6.00;99.90
14397;DHT22;50653;47.810;13.022;2024-03-29T01:50:45;6.00;99.90
14397;DHT22;50653;47.810;13.022;2024-03-29T01:53:11;6.00;99.90
14397;DHT22;50653;47.810;13.022;2024-03-29T01:55:37;6.10;99.90
14397;DHT22;50653;47.810;13.022;2024-03-29T01:58:04;6.10;99.90
14397;DHT22;50653;47.810;13.022;2024-03-29T02:00:30;6.10;99.90
14397;DHT22;50653;47.810;13.022;2024-03-29T02:03:01;6.10;99.90
14397;DHT22;50653;47.810;13.022;2024-03-29T02:05:27;6.20;99.90
14397;DHT22;50653;47.810;13.022;2024-03-29T02:07:54;6.10;99.90
14397;DHT22;50653;47.810;13.022;2024-03-29T02:10:20;6.10;99.90
14397;DHT22;50653;47.810;13.022;2024-03-29T02:12:46;6.10;99.90
14397;DHT22;50653;47.810;13.022;2024-03-29T02:15:15;6.10;99.90
14397;DHT22;50653;47.810;13.022;2024-03-29T02:17:44;6.00;99.90
14397;DHT22;50653;47.810;13.022;2024-03-29T02:20:10;6.00;99.90
14397;DHT22;50653;47.810;13.022;2024-03-29T02:22:46;6.00;99.90
14397;DHT22;50653;47.810;13.022;2024-03-29T02:25:12;6.00;99.90
14397;DHT22;50653;47.810;13.022;2024-03-29T02:27:38;6.00;99.90
14397;DHT22;50653;47.810;13.022;2024-03-29T02:30:05;6.10;99.90
14397;DHT22;50653;47.810;13.022;2024-03-29T02:32:30;6.00;99.90
14397;DHT22;50653;47.810;13.022;2024-03-29T02:34:56;6.00;99.90
14397;DHT22;50653;47.810;13.022;2024-03-29T02:37:22;5.90;99.90
14397;DHT22;50653;47.810;13.022;2024-03-29T02:39:47;6.00;99.90
14397;DHT22;50653;47.810;13.022;2024-03-29T02:42:13;6.00;99.90
14397;DHT22;50653;47.810;13.022;2024-03-29T02:44:39;6.00;99.90
14397;DHT22;50653;47.810;13.022;2024-03-29T02:47:04;6.00;99.90
14397;DHT22;50653;47.810;13.022;2024-03-29T02:49:30;6.00;99.90
14397;DHT22;50653;47.810;13.022;2024-03-29T02:51:55;6.00;99.90
14397;DHT22;50653;47.810;13.022;2024-03-29T02:54:22;6.00;99.90
14397;DHT22;50653;47.810;13.022;2024-03-29T02:56:48;6.10;99.90
14397;DHT22;50653;47.810;13.022;2024-03-29T02:59:13;6.20;99.90
14397;DHT22;50653;47.810;13.022;2024-03-29T03:01:40;6.30;99.90
14397;DHT22;50653;47.810;13.022;2024-03-29T03:04:05;6.40;99.90
14397;DHT22;50653;47.810;13.022;2024-03-29T03:06:31;6.40;99.90
14397;DHT22;50653;47.810;13.022;2024-03-29T03:08:57;6.40;99.90
14397;DHT22;50653;47.810;13.022;2024-03-29T03:11:41;6.40;99.90
14397;DHT22;50653;47.810;13.022;2024-03-29T03:14:07;6.40;99.90
14397;DHT22;50653;47.810;13.022;2024-03-29T03:16:33;6.40;99.90
14397;DHT22;50653;47.810;13.022;2024-03-29T03:18:58;6.40;99.90
14397;DHT22;50653;47.810;13.022;2024-03-29T03:21:25;6.30;99.90
14397;DHT22;50653;47.810;13.022;2024-03-29T03:23:50;6.30;99.90
14397;DHT22;50653;47.810;13.022;2024-03-29T03:26:16;6.30;99.90
14397;DHT22;50653;47.810;13.022;2024-03-29T03:28:42;6.30;99.90
14397;DHT22;50653;47.810;13.022;2024-03-29T03:31:07;6.40;99.90
14397;DHT22;50653;47.810;13.022;2024-03-29T03:33:34;6.40;99.90
14397;DHT22;50653;47.810;13.022;2024-03-29T03:36:00;6.30;99.90
14397;DHT22;50653;47.810;13.022;2024-03-29T03:38:26;6.30;99.90
14397;DHT22;50653;47.810;13.022;2024-03-29T03:40:51;6.30;99.90
14397;DHT22;50653;47.810;13.022;2024-03-29T03:43:17;6.30;99.90
14397;DHT22;50653;47.810;13.022;2024-03-29T03:45:42;6.40;99.90
14397;DHT22;50653;47.810;13.022;2024-03-29T03:48:10;6.30;99.90
14397;DHT22;50653;47.810;13.022;2024-03-29T03:50:37;6.30;99.90
14397;DHT22;50653;47.810;13.022;2024-03-29T03:53:02;6.30;99.90
14397;DHT22;50653;47.810;13.022;2024-03-29T03:55:28;6.20;99.90
14397;DHT22;50653;47.810;13.022;2024-03-29T03:57:54;6.30;99.90
14397;DHT22;50653;47.810;13.022;2024-03-29T04:00:21;6.30;99.90
14397;DHT22;50653;47.810;13.022;2024-03-29T04:02:50;6.20;99.90
14397;DHT22;50653;47.810;13.022;2024-03-29T04:05:17;6.30;99.90
14397;DHT22;50653;47.810;13.022;2024-03-29T04:07:43;6.10;99.90
14397;DHT22;50653;47.810;13.022;2024-03-29T04:10:09;6.20;99.90
14397;DHT22;50653;47.810;13.022;2024-03-29T04:12:35;6.20;99.90
14397;DHT22;50653;47.810;13.022;2024-03-29T04:15:01;6.20;99.90
14397;DHT22;50653;47.810;13.022;2024-03-29T04:17:26;6.20;99.90
14397;DHT22;50653;47.810;13.022;2024-03-29T04:19:52;6.30;99.90
14397;DHT22;50653;47.810;13.022;2024-03-29T04:22:18;6.30;99.90
14397;DHT22;50653;47.810;13.022;2024-03-29T04:24:44;6.30;99.90
14397;DHT22;50653;47.810;13.022;2024-03-29T04:27:10;6.30;99.90
14397;DHT22;50653;47.810;13.022;2024-03-29T04:29:35;6.30;99.90
14397;DHT22;50653;47.810;13.022;2024-03-29T04:32:01;6.30;99.90
14397;DHT22;50653;47.810;13.022;2024-03-29T04:34:27;6.30;99.90
14397;DHT22;50653;47.810;13.022;2024-03-29T04:36:52;6.30;99.90
14397;DHT22;50653;47.810;13.022;2024-03-29T04:39:18;6.30;99.90
14397;DHT22;50653;47.810;13.022;2024-03-29T04:41:44;6.30;99.90
14397;DHT22;50653;47.810;13.022;2024-03-29T04:44:12;6.30;99.90
14397;DHT22;50653;47.810;13.022;2024-03-29T04:46:39;6.30;99.90
14397;DHT22;50653;47.810;13.022;2024-03-29T04:49:05;6.20;99.90
14397;DHT22;50653;47.810;13.022;2024-03-29T04:51:30;6.20;99.90
14397;DHT22;50653;47.810;13.022;2024-03-29T04:53:56;6.10;99.90
14397;DHT22;50653;47.810;13.022;2024-03-29T04:56:22;6.10;99.90
14397;DHT22;50653;47.810;13.022;2024-03-29T04:58:47;6.10;99.90
14397;DHT22;50653;47.810;13.022;2024-03-29T05:01:13;6.10;99.90
14397;DHT22;50653;47.810;13.022;2024-03-29T05:03:38;6.00;99.90
14397;DHT22;50653;47.810;13.022;2024-03-29T05:06:04;6.00;99.90
14397;DHT22;50653;47.810;13.022;2024-03-29T05:08:30;6.00;99.90
14397;DHT22;50653;47.810;13.022;2024-03-29T05:10:56;6.00;99.90
14397;DHT22;50653;47.810;13.022;2024-03-29T05:13:22;6.10;99.90
14397;DHT22;50653;47.810;13.022;2024-03-29T05:15:48;6.00;99.90
14397;DHT22;50653;47.810;13.022;2024-03-29T05:18:14;6.00;99.90
14397;DHT22;50653;47.810;13.022;2024-03-29T05:20:40;6.10;99.90
14397;DHT22;50653;47.810;13.022;2024-03-29T05:23:07;6.10;99.90
14397;DHT22;50653;47.810;13.022;2024-03-29T05:25:33;6.00;99.90
14397;DHT22;50653;47.810;13.022;2024-03-29T05:27:59;6.10;99.90
14397;DHT22;50653;47.810;13.022;2024-03-29T05:30:25;6.10;99.90
14397;DHT22;50653;47.810;13.022;2024-03-29T05:32:50;6.10;99.90
14397;DHT22;50653;47.810;13.022;2024-03-29T05:35:16;6.20;99.90
14397;DHT22;50653;47.810;13.022;2024-03-29T05:37:42;6.30;99.90
14397;DHT22;50653;47.810;13.022;2024-03-29T05:40:08;6.40;99.90
14397;DHT22;50653;47.810;13.022;2024-03-29T05:42:34;6.40;99.90
14397;DHT22;50653;47.810;13.022;2024-03-29T05:45:04;6.50;99.90
14397;DHT22;50653;47.810;13.022;2024-03-29T05:47:30;6.60;99.90
14397;DHT22;50653;47.810;13.022;2024-03-29T05:49:56;6.70;99.90
14397;DHT22;50653;47.810;13.022;2024-03-29T05:52:21;6.70;99.90
14397;DHT22;50653;47.810;13.022;2024-03-29T05:54:48;6.70;99.90
14397;DHT22;50653;47.810;13.022;2024-03-29T05:57:14;6.80;99.90
14397;DHT22;50653;47.810;13.022;2024-03-29T05:59:41;6.80;99.90
14397;DHT22;50653;47.810;13.022;2024-03-29T06:02:07;6.80;99.90
14397;DHT22;50653;47.810;13.022;2024-03-29T06:04:32;6.90;99.90
14397;DHT22;50653;47.810;13.022;2024-03-29T06:07:02;7.00;99.90
14397;DHT22;50653;47.810;13.022;2024-03-29T06:09:28;7.00;99.90
14397;DHT22;50653;47.810;13.022;2024-03-29T06:11:55;7.10;99.90
14397;DHT22;50653;47.810;13.022;2024-03-29T06:14:21;7.20;99.90
14397;DHT22;50653;47.810;13.022;2024-03-29T06:17:06;7.30;99.90
14397;DHT22;50653;47.810;13.022;2024-03-29T06:19:54;7.40;99.90
14397;DHT22;50653;47.810;13.022;2024-03-29T06:22:26;7.40;99.90
14397;DHT22;50653;47.810;13.022;2024-03-29T06:24:58;7.50;99.90
14397;DHT22;50653;47.810;13.022;2024-03-29T06:27:35;7.60;99.90
14397;DHT22;50653;47.810;13.022;2024-03-29T06:30:02;7.60;99.90
14397;DHT22;50653;47.810;13.022;2024-03-29T06:32:29;7.80;99.90
14397;DHT22;50653;47.810;13.022;2024-03-29T06:34:55;7.80;99.90
14397;DHT22;50653;47.810;13.022;2024-03-29T06:37:21;7.90;99.90
14397;DHT22;50653;47.810;13.022;2024-03-29T06:39:50;7.90;99.90
14397;DHT22;50653;47.810;13.022;2024-03-29T06:42:16;8.00;99.90
14397;DHT22;50653;47.810;13.022;2024-03-29T06:44:42;8.00;99.90
14397;DHT22;50653;47.810;13.022;2024-03-29T06:47:08;8.00;99.90
14397;DHT22;50653;47.810;13.022;2024-03-29T06:49:34;8.10;99.90
14397;DHT22;50653;47.810;13.022;2024-03-29T06:52:00;8.20;99.90
14397;DHT22;50653;47.810;13.022;2024-03-29T06:54:27;8.20;99.90
14397;DHT22;50653;47.810;13.022;2024-03-29T06:56:56;8.30;99.90
14397;DHT22;50653;47.810;13.022;2024-03-29T06:59:23;8.40;99.90
14397;DHT22;50653;47.810;13.022;2024-03-29T07:01:48;8.50;99.90
14397;DHT22;50653;47.810;13.022;2024-03-29T07:04:24;8.60;99.90
14397;DHT22;50653;47.810;13.022;2024-03-29T07:06:51;8.70;99.90
14397;DHT22;50653;47.810;13.022;2024-03-29T07:09:18;8.70;99.90
14397;DHT22;50653;47.810;13.022;2024-03-29T07:11:46;8.90;99.90
14397;DHT22;50653;47.810;13.022;2024-03-29T07:14:13;9.00;99.90
14397;DHT22;50653;47.810;13.022;2024-03-29T07:16:39;9.00;99.90
14397;DHT22;50653;47.810;13.022;2024-03-29T07:19:04;9.10;99.90
14397;DHT22;50653;47.810;13.022;2024-03-29T07:21:30;9.20;99.90
14397;DHT22;50653;47.810;13.022;2024-03-29T07:23:56;9.30;99.90
14397;DHT22;50653;47.810;13.022;2024-03-29T07:26:22;9.40;99.90
14397;DHT22;50653;47.810;13.022;2024-03-29T07:28:48;9.50;99.90
14397;DHT22;50653;47.810;13.022;2024-03-29T07:31:13;9.60;99.90
14397;DHT22;50653;47.810;13.022;2024-03-29T07:33:39;9.60;99.90
14397;DHT22;50653;47.810;13.022;2024-03-29T07:36:06;9.70;99.90
14397;DHT22;50653;47.810;13.022;2024-03-29T07:38:33;9.80;99.90
14397;DHT22;50653;47.810;13.022;2024-03-29T07:40:59;9.90;99.90
14397;DHT22;50653;47.810;13.022;2024-03-29T07:43:25;10.00;99.90
14397;DHT22;50653;47.810;13.022;2024-03-29T07:45:51;10.10;99.90
14397;DHT22;50653;47.810;13.022;2024-03-29T07:48:17;10.30;99.90
14397;DHT22;50653;47.810;13.022;2024-03-29T07:50:44;10.30;99.90
14397;DHT22;50653;47.810;13.022;2024-03-29T07:53:11;10.40;99.90
14397;DHT22;50653;47.810;13.022;2024-03-29T07:55:40;10.40;99.90
14397;DHT22;50653;47.810;13.022;2024-03-29T07:58:10;10.60;99.90
14397;DHT22;50653;47.810;13.022;2024-03-29T08:00:39;10.80;99.90
14397;DHT22;50653;47.810;13.022;2024-03-29T08:03:06;11.00;99.90
14397;DHT22;50653;47.810;13.022;2024-03-29T08:05:32;11.00;99.90
14397;DHT22;50653;47.810;13.022;2024-03-29T08:07:59;11.10;99.90
14397;DHT22;50653;47.810;13.022;2024-03-29T08:10:25;11.10;99.90
14397;DHT22;50653;47.810;13.022;2024-03-29T08:12:50;11.10;99.90
14397;DHT22;50653;47.810;13.022;2024-03-29T08:15:16;11.20;99.90
14397;DHT22;50653;47.810;13.022;2024-03-29T08:17:44;11.40;99.90
14397;DHT22;50653;47.810;13.022;2024-03-29T08:20:10;11.40;99.90
14397;DHT22;50653;47.810;13.022;2024-03-29T08:22:36;11.50;99.90
14397;DHT22;50653;47.810;13.022;2024-03-29T08:25:02;11.60;99.90
14397;DHT22;50653;47.810;13.022;2024-03-29T08:27:28;11.70;99.90
14397;DHT22;50653;47.810;13.022;2024-03-29T08:29:53;11.90;99.90
14397;DHT22;50653;47.810;13.022;2024-03-29T08:32:19;12.00;99.90
14397;DHT22;50653;47.810;13.022;2024-03-29T08:34:45;12.00;99.90
14397;DHT22;50653;47.810;13.022;2024-03-29T08:37:11;12.20;99.90
14397;DHT22;50653;47.810;13.022;2024-03-29T08:39:37;12.30;99.90
14397;DHT22;50653;47.810;13.022;2024-03-29T08:42:04;12.40;99.90
14397;DHT22;50653;47.810;13.022;2024-03-29T08:44:37;12.50;99.90
14397;DHT22;50653;47.810;13.022;2024-03-29T08:47:02;12.80;99.90
14397;DHT22;50653;47.810;13.022;2024-03-29T08:49:29;12.90;99.90
14397;DHT22;50653;47.810;13.022;2024-03-29T08:51:55;13.00;99.90
14397;DHT22;50653;47.810;13.022;2024-03-29T08:54:21;13.10;99.90
14397;DHT22;50653;47.810;13.022;2024-03-29T08:56:47;13.20;99.90
14397;DHT22;50653;47.810;13.022;2024-03-29T08:59:13;13.40;99.90
14397;DHT22;50653;47.810;13.022;2024-03-29T09:01:45;13.50;99.70
14397;DHT22;50653;47.810;13.022;2024-03-29T09:04:11;13.60;99.90
14397;DHT22;50653;47.810;13.022;2024-03-29T09:06:38;13.60;99.90
14397;DHT22;50653;47.810;13.022;2024-03-29T09:09:06;13.70;99.90
14397;DHT22;50653;47.810;13.022;2024-03-29T09:11:33;13.80;99.60
14397;DHT22;50653;47.810;13.022;2024-03-29T09:13:58;13.90;99.80
14397;DHT22;50653;47.810;13.022;2024-03-29T09:16:25;13.90;99.60
14397;DHT22;50653;47.810;13.022;2024-03-29T09:18:51;14.00;99.10
14397;DHT22;50653;47.810;13.022;2024-03-29T09:21:18;14.00;99.40
14397;DHT22;50653;47.810;13.022;2024-03-29T09:23:45;14.10;99.40
14397;DHT22;50653;47.810;13.022;2024-03-29T09:26:11;14.10;99.90
14397;DHT22;50653;47.810;13.022;2024-03-29T09:28:39;14.30;99.90
14397;DHT22;50653;47.810;13.022;2024-03-29T09:31:05;14.40;98.10
14397;DHT22;50653;47.810;13.022;2024-03-29T09:33:31;14.50;97.80
14397;DHT22;50653;47.810;13.022;2024-03-29T09:35:57;14.60;96.80
14397;DHT22;50653;47.810;13.022;2024-03-29T09:38:27;14.70;96.40
14397;DHT22;50653;47.810;13.022;2024-03-29T09:41:07;14.70;95.80
14397;DHT22;50653;47.810;13.022;2024-03-29T09:43:35;14.70;95.10
14397;DHT22;50653;47.810;13.022;2024-03-29T09:46:02;14.90;94.70
14397;DHT22;50653;47.810;13.022;2024-03-29T09:48:28;15.00;94.50
14397;DHT22;50653;47.810;13.022;2024-03-29T09:51:05;15.10;94.30
14397;DHT22;50653;47.810;13.022;2024-03-29T09:53:34;15.20;93.90
14397;DHT22;50653;47.810;13.022;2024-03-29T09:56:00;15.40;93.40
14397;DHT22;50653;47.810;13.022;2024-03-29T09:58:26;15.50;92.90
14397;DHT22;50653;47.810;13.022;2024-03-29T10:00:52;15.50;93.10
14397;DHT22;50653;47.810;13.022;2024-03-29T10:03:23;15.70;92.50
14397;DHT22;50653;47.810;13.022;2024-03-29T10:05:49;15.70;91.90
14397;DHT22;50653;47.810;13.022;2024-03-29T10:08:16;15.80;91.30
14397;DHT22;50653;47.810;13.022;2024-03-29T10:10:42;15.80;91.20
14397;DHT22;50653;47.810;13.022;2024-03-29T10:13:08;16.00;91.50
14397;DHT22;50653;47.810;13.022;2024-03-29T10:15:34;16.00;90.80
14397;DHT22;50653;47.810;13.022;2024-03-29T10:18:02;15.90;91.20
14397;DHT22;50653;47.810;13.022;2024-03-29T10:20:28;16.00;90.30
14397;DHT22;50653;47.810;13.022;2024-03-29T10:22:55;15.90;90.90
14397;DHT22;50653;47.810;13.022;2024-03-29T10:25:23;16.00;90.80
14397;DHT22;50653;47.810;13.022;2024-03-29T10:27:49;15.90;90.90
14397;DHT22;50653;47.810;13.022;2024-03-29T10:30:15;15.80;91.50
14397;DHT22;50653;47.810;13.022;2024-03-29T10:32:45;15.80;91.30
14397;DHT22;50653;47.810;13.022;2024-03-29T10:35:10;15.70;91.30
14397;DHT22;50653;47.810;13.022;2024-03-29T10:37:36;15.70;91.20
14397;DHT22;50653;47.810;13.022;2024-03-29T10:40:08;15.60;90.90
14397;DHT22;50653;47.810;13.022;2024-03-29T10:42:36;15.60;91.20
14397;DHT22;50653;47.810;13.022;2024-03-29T10:45:02;15.60;91.30
14397;DHT22;50653;47.810;13.022;2024-03-29T10:47:29;15.60;91.90
14397;DHT22;50653;47.810;13.022;2024-03-29T10:49:56;15.60;91.50
14397;DHT22;50653;47.810;13.022;2024-03-29T10:52:25;15.60;91.40
14397;DHT22;50653;47.810;13.022;2024-03-29T10:54:52;15.60;92.10
14397;DHT22;50653;47.810;13.022;2024-03-29T10:57:23;15.70;92.00
14397;DHT22;50653;47.810;13.022;2024-03-29T11:02:55;15.80;91.50
14397;DHT22;50653;47.810;13.022;2024-03-29T11:05:22;15.90;91.40
14397;DHT22;50653;47.810;13.022;2024-03-29T11:07:50;16.00;90.70
14397;DHT22;50653;47.810;13.022;2024-03-29T11:10:24;16.20;91.50
14397;DHT22;50653;47.810;13.022;2024-03-29T11:15:59;16.80;89.50
14397;DHT22;50653;47.810;13.022;2024-03-29T11:18:27;16.70;90.20
14397;DHT22;50653;47.810;13.022;2024-03-29T11:20:53;16.90;88.90
14397;DHT22;50653;47.810;13.022;2024-03-29T11:23:21;17.20;88.40
14397;DHT22;50653;47.810;13.022;2024-03-29T11:25:54;17.40;86.50
14397;DHT22;50653;47.810;13.022;2024-03-29T11:28:30;17.40;87.90
14397;DHT22;50653;47.810;13.022;2024-03-29T11:31:05;17.40;88.10
14397;DHT22;50653;47.810;13.022;2024-03-29T11:36:17;17.40;84.00
14397;DHT22;50653;47.810;13.022;2024-03-29T11:38:48;17.40;84.80
14397;DHT22;50653;47.810;13.022;2024-03-29T11:41:16;17.40;85.10
14397;DHT22;50653;47.810;13.022;2024-03-29T11:43:42;17.40;84.30
14397;DHT22;50653;47.810;13.022;2024-03-29T11:46:13;17.60;84.70
14397;DHT22;50653;47.810;13.022;2024-03-29T11:48:39;17.60;83.20
14397;DHT22;50653;47.810;13.022;2024-03-29T11:51:12;17.90;82.60
14397;DHT22;50653;47.810;13.022;2024-03-29T11:53:40;17.90;82.20
14397;DHT22;50653;47.810;13.022;2024-03-29T11:56:06;18.10;81.40
14397;DHT22;50653;47.810;13.022;2024-03-29T11:58:33;18.30;79.50
14397;DHT22;50653;47.810;13.022;2024-03-29T12:01:00;18.20;79.30
14397;DHT22;50653;47.810;13.022;2024-03-29T12:03:28;18.50;78.20
14397;DHT22;50653;47.810;13.022;2024-03-29T12:05:55;18.50;78.00
14397;DHT22;50653;47.810;13.022;2024-03-29T12:08:31;18.50;77.70
14397;DHT22;50653;47.810;13.022;2024-03-29T12:11:00;18.60;77.60
14397;DHT22;50653;47.810;13.022;2024-03-29T12:13:26;18.70;74.90
14397;DHT22;50653;47.810;13.022;2024-03-29T12:15:52;18.80;74.40
14397;DHT22;50653;47.810;13.022;2024-03-29T12:18:23;18.80;73.00
14397;DHT22;50653;47.810;13.022;2024-03-29T12:20:49;18.70;72.20
14397;DHT22;50653;47.810;13.022;2024-03-29T12:23:20;18.80;72.10
14397;DHT22;50653;47.810;13.022;2024-03-29T12:25:47;18.80;71.70
14397;DHT22;50653;47.810;13.022;2024-03-29T12:28:14;19.10;71.10
14397;DHT22;50653;47.810;13.022;2024-03-29T12:30:46;19.10;72.30
14397;DHT22;50653;47.810;13.022;2024-03-29T12:35:42;19.00;73.90
14397;DHT22;50653;47.810;13.022;2024-03-29T12:38:14;19.00;75.20
14397;DHT22;50653;47.810;13.022;2024-03-29T12:40:44;19.20;71.10
14397;DHT22;50653;47.810;13.022;2024-03-29T12:43:11;19.30;72.20
14397;DHT22;50653;47.810;13.022;2024-03-29T12:45:39;19.40;70.60
14397;DHT22;50653;47.810;13.022;2024-03-29T12:48:19;19.40;70.20
14397;DHT22;50653;47.810;13.022;2024-03-29T12:50:51;19.60;69.60
14397;DHT22;50653;47.810;13.022;2024-03-29T12:53:20;19.70;69.50
14397;DHT22;50653;47.810;13.022;2024-03-29T12:55:48;19.70;67.40
14397;DHT22;50653;47.810;13.022;2024-03-29T12:58:18;19.80;66.70
14397;DHT22;50653;47.810;13.022;2024-03-29T13:00:48;19.70;66.20
14397;DHT22;50653;47.810;13.022;2024-03-29T13:03:14;20.00;67.40
14397;DHT22;50653;47.810;13.022;2024-03-29T13:05:40;19.90;66.70
14397;DHT22;50653;47.810;13.022;2024-03-29T13:08:11;20.00;66.10
14397;DHT22;50653;47.810;13.022;2024-03-29T13:10:37;20.20;66.70
14397;DHT22;50653;47.810;13.022;2024-03-29T13:13:05;20.20;65.80
14397;DHT22;50653;47.810;13.022;2024-03-29T13:15:36;20.40;63.50
14397;DHT22;50653;47.810;13.022;2024-03-29T13:18:03;20.50;62.70
14397;DHT22;50653;47.810;13.022;2024-03-29T13:20:30;20.40;62.40
14397;DHT22;50653;47.810;13.022;2024-03-29T13:22:56;20.40;62.10
14397;DHT22;50653;47.810;13.022;2024-03-29T13:25:23;20.40;61.10
14397;DHT22;50653;47.810;13.022;2024-03-29T13:27:53;20.60;61.90
14397;DHT22;50653;47.810;13.022;2024-03-29T13:30:24;20.70;60.30
14397;DHT22;50653;47.810;13.022;2024-03-29T13:32:51;20.80;60.40
14397;DHT22;50653;47.810;13.022;2024-03-29T13:35:17;20.90;59.60
14397;DHT22;50653;47.810;13.022;2024-03-29T13:37:45;20.80;59.30
14397;DHT22;50653;47.810;13.022;2024-03-29T13:40:21;21.00;58.70
14397;DHT22;50653;47.810;13.022;2024-03-29T13:42:47;20.90;58.80
14397;DHT22;50653;47.810;13.022;2024-03-29T13:45:14;21.10;58.10
14397;DHT22;50653;47.810;13.022;2024-03-29T13:47:41;21.10;57.60
14397;DHT22;50653;47.810;13.022;2024-03-29T13:50:09;21.10;57.30
14397;DHT22;50653;47.810;13.022;2024-03-29T13:52:35;21.00;57.70
14397;DHT22;50653;47.810;13.022;2024-03-29T13:55:02;21.00;57.80
14397;DHT22;50653;47.810;13.022;2024-03-29T13:57:31;20.90;57.80
14397;DHT22;50653;47.810;13.022;2024-03-29T14:00:00;20.80;57.10
14397;DHT22;50653;47.810;13.022;2024-03-29T14:02:26;20.70;57.20
14397;DHT22;50653;47.810;13.022;2024-03-29T14:04:54;20.70;57.60
14397;DHT22;50653;47.810;13.022;2024-03-29T14:07:20;20.70;57.50
14397;DHT22;50653;47.810;13.022;2024-03-29T14:09:46;20.80;56.90
14397;DHT22;50653;47.810;13.022;2024-03-29T14:12:13;20.90;57.00
14397;DHT22;50653;47.810;13.022;2024-03-29T14:14:39;21.00;56.40
14397;DHT22;50653;47.810;13.022;2024-03-29T14:17:07;21.00;56.20
14397;DHT22;50653;47.810;13.022;2024-03-29T14:19:38;20.90;56.90
14397;DHT22;50653;47.810;13.022;2024-03-29T14:22:04;20.90;57.10
14397;DHT22;50653;47.810;13.022;2024-03-29T14:24:31;20.90;57.70
14397;DHT22;50653;47.810;13.022;2024-03-29T14:27:01;20.80;57.70
14397;DHT22;50653;47.810;13.022;2024-03-29T14:29:27;20.80;57.70
14397;DHT22;50653;47.810;13.022;2024-03-29T14:31:52;21.00;56.60
14397;DHT22;50653;47.810;13.022;2024-03-29T14:34:21;21.00;56.10
14397;DHT22;50653;47.810;13.022;2024-03-29T14:36:47;21.10;56.00
14397;DHT22;50653;47.810;13.022;2024-03-29T14:39:13;21.10;56.30
14397;DHT22;50653;47.810;13.022;2024-03-29T14:41:39;21.10;55.60
14397;DHT22;50653;47.810;13.022;2024-03-29T14:44:06;21.20;55.50
14397;DHT22;50653;47.810;13.022;2024-03-29T14:46:33;21.10;55.80
14397;DHT22;50653;47.810;13.022;2024-03-29T14:48:59;21.00;55.50
14397;DHT22;50653;47.810;13.022;2024-03-29T14:51:25;21.00;55.50
14397;DHT22;50653;47.810;13.022;2024-03-29T14:53:51;21.00;56.10
14397;DHT22;50653;47.810;13.022;2024-03-29T14:56:17;20.90;55.70
14397;DHT22;50653;47.810;13.022;2024-03-29T14:58:43;20.90;55.20
14397;DHT22;50653;47.810;13.022;2024-03-29T15:01:08;20.80;55.40
14397;DHT22;50653;47.810;13.022;2024-03-29T15:03:34;20.80;55.50
14397;DHT22;50653;47.810;13.022;2024-03-29T15:06:00;20.70;55.60
14397;DHT22;50653;47.810;13.022;2024-03-29T15:08:26;20.70;55.60
14397;DHT22;50653;47.810;13.022;2024-03-29T15:11:01;20.70;55.70
14397;DHT22;50653;47.810;13.022;2024-03-29T15:13:27;20.60;55.70
14397;DHT22;50653;47.810;13.022;2024-03-29T15:15:58;20.60;56.10
14397;DHT22;50653;47.810;13.022;2024-03-29T15:18:24;20.50;55.30
14397;DHT22;50653;47.810;13.022;2024-03-29T15:20:56;20.40;55.50
14397;DHT22;50653;47.810;13.022;2024-03-29T15:23:22;20.40;55.10
14397;DHT22;50653;47.810;13.022;2024-03-29T15:25:57;20.40;55.00
14397;DHT22;50653;47.810;13.022;2024-03-29T15:28:24;20.40;54.90
14397;DHT22;50653;47.810;13.022;2024-03-29T15:33:35;20.30;54.30
14397;DHT22;50653;47.810;13.022;2024-03-29T15:36:01;20.20;55.00